createdAt,value
2017-05-02T00:00:20.092Z,0
2017-05-02T00:01:29.691Z,0
2017-05-02T00:02:39.937Z,0
2017-05-02T00:03:49.834Z,0
2017-05-02T00:04:59.755Z,0
2017-05-02T00:06:09.651Z,0
2017-05-02T00:07:19.576Z,0
2017-05-02T00:08:29.190Z,0
2017-05-02T00:09:39.092Z,0
2017-05-02T00:10:49.007Z,0
2017-05-02T00:11:58.767Z,0
2017-05-02T00:13:08.996Z,0
2017-05-02T00:14:19.233Z,0
2017-05-02T00:15:28.845Z,0
2017-05-02T00:16:39.061Z,0
2017-05-02T00:17:49.578Z,0
2017-05-02T00:18:59.502Z,0
2017-05-02T00:20:09.413Z,0
2017-05-02T00:21:19.010Z,0
2017-05-02T00:22:28.932Z,0
2017-05-02T00:23:39.252Z,0
2017-05-02T00:24:49.470Z,0
2017-05-02T00:25:58.474Z,0
2017-05-02T00:27:08.384Z,0
2017-05-02T00:28:18.000Z,0
2017-05-02T00:29:27.594Z,0
2017-05-02T00:30:37.493Z,0
2017-05-02T00:31:46.785Z,0
2017-05-02T00:32:56.385Z,0
2017-05-02T00:34:06.609Z,0
2017-05-02T00:35:16.670Z,0
2017-05-02T00:36:26.271Z,0
2017-05-02T00:37:36.177Z,0
2017-05-02T00:38:46.091Z,0
2017-05-02T00:39:56.018Z,0
2017-05-02T00:41:06.246Z,0
2017-05-02T00:42:15.272Z,0
2017-05-02T00:43:25.201Z,0
2017-05-02T00:44:35.789Z,0
2017-05-02T00:45:46.007Z,0
2017-05-02T00:46:56.273Z,0
2017-05-02T00:48:06.180Z,0
2017-05-02T00:49:16.081Z,0
2017-05-02T00:50:26.303Z,0
2017-05-02T00:51:36.531Z,0
2017-05-02T00:52:46.602Z,0
2017-05-02T00:53:56.512Z,0
2017-05-02T00:55:06.721Z,0
2017-05-02T00:56:16.623Z,0
2017-05-02T00:57:26.528Z,0
2017-05-02T00:58:36.579Z,0
2017-05-02T00:59:46.803Z,0
2017-05-02T01:00:56.705Z,0
2017-05-02T01:02:06.927Z,0
2017-05-02T01:03:17.140Z,0
2017-05-02T01:04:27.350Z,0
2017-05-02T01:05:37.565Z,0
2017-05-02T01:06:47.466Z,0
2017-05-02T01:07:57.069Z,0
2017-05-02T01:09:07.283Z,0
2017-05-02T01:10:17.075Z,0
2017-05-02T01:11:26.990Z,0
2017-05-02T01:12:36.895Z,0
2017-05-02T01:13:47.135Z,0
2017-05-02T01:14:57.059Z,0
2017-05-02T01:16:07.670Z,0
2017-05-02T01:17:17.580Z,0
2017-05-02T01:18:27.488Z,0
2017-05-02T01:19:37.726Z,0
2017-05-02T01:20:47.008Z,0
2017-05-02T01:21:56.857Z,0
2017-05-02T01:23:07.069Z,0
2017-05-02T01:24:16.983Z,0
2017-05-02T01:25:27.198Z,0
2017-05-02T01:26:37.093Z,0
2017-05-02T01:27:47.150Z,0
2017-05-02T01:28:56.142Z,0
2017-05-02T01:30:06.366Z,0
2017-05-02T01:31:16.269Z,0
2017-05-02T01:32:25.883Z,0
2017-05-02T01:33:35.791Z,0
2017-05-02T01:34:46.021Z,0
2017-05-02T01:35:55.347Z,0
2017-05-02T01:37:05.268Z,0
2017-05-02T01:38:15.182Z,0
2017-05-02T01:39:25.399Z,0
2017-05-02T01:40:35.304Z,0
2017-05-02T01:41:45.514Z,0
2017-05-02T01:42:55.729Z,0
2017-05-02T01:44:05.642Z,0
2017-05-02T01:45:14.884Z,0
2017-05-02T01:46:25.092Z,0
2017-05-02T01:47:34.391Z,0
2017-05-02T01:48:44.292Z,0
2017-05-02T01:49:54.234Z,0
2017-05-02T01:51:04.391Z,0
2017-05-02T01:52:13.691Z,0
2017-05-02T01:53:23.596Z,0
2017-05-02T01:54:33.516Z,0
2017-05-02T01:55:43.431Z,0
2017-05-02T01:56:53.843Z,0
2017-05-02T01:58:03.788Z,0
2017-05-02T01:59:13.689Z,0
2017-05-02T02:00:23.597Z,0
2017-05-02T02:01:33.498Z,0
2017-05-02T02:02:44.003Z,0
2017-05-02T02:03:53.638Z,0
2017-05-02T02:05:03.853Z,0
2017-05-02T02:06:13.469Z,0
2017-05-02T02:07:23.382Z,0
2017-05-02T02:08:33.599Z,0
2017-05-02T02:09:43.513Z,0
2017-05-02T02:10:53.423Z,0
2017-05-02T02:12:03.325Z,0
2017-05-02T02:13:12.934Z,0
2017-05-02T02:14:23.196Z,0
2017-05-02T02:15:33.093Z,0
2017-05-02T02:16:43.031Z,0
2017-05-02T02:17:53.246Z,0
2017-05-02T02:19:02.541Z,0
2017-05-02T02:20:12.236Z,0
2017-05-02T02:21:21.840Z,0
2017-05-02T02:22:31.735Z,0
2017-05-02T02:23:41.942Z,0
2017-05-02T02:24:51.555Z,0
2017-05-02T02:26:02.478Z,0
2017-05-02T02:27:12.386Z,0
2017-05-02T02:28:21.988Z,0
2017-05-02T02:29:32.209Z,0
2017-05-02T02:30:42.106Z,0
2017-05-02T02:31:52.613Z,0
2017-05-02T02:33:02.515Z,0
2017-05-02T02:34:12.421Z,0
2017-05-02T02:35:22.344Z,0
2017-05-02T02:36:32.251Z,0
2017-05-02T02:37:42.716Z,0
2017-05-02T02:38:52.620Z,0
2017-05-02T02:40:01.931Z,0
2017-05-02T02:41:11.832Z,0
2017-05-02T02:42:21.735Z,0
2017-05-02T02:43:31.901Z,0
2017-05-02T02:44:41.808Z,0
2017-05-02T02:45:51.443Z,0
2017-05-02T02:47:01.361Z,0
2017-05-02T02:48:10.952Z,0
2017-05-02T02:49:21.012Z,0
2017-05-02T02:50:30.617Z,0
2017-05-02T02:51:40.833Z,0
2017-05-02T02:52:50.741Z,0
2017-05-02T02:54:00.665Z,0
2017-05-02T02:55:10.722Z,0
2017-05-02T02:56:20.317Z,0
2017-05-02T02:57:30.542Z,0
2017-05-02T02:58:40.141Z,0
2017-05-02T02:59:50.345Z,0
2017-05-02T03:01:00.624Z,0
2017-05-02T03:02:10.233Z,0
2017-05-02T03:03:19.216Z,0
2017-05-02T03:04:28.827Z,0
2017-05-02T03:05:39.055Z,0
2017-05-02T03:06:49.311Z,0
2017-05-02T03:07:59.519Z,0
2017-05-02T03:09:09.424Z,0
2017-05-02T03:10:19.328Z,0
2017-05-02T03:11:29.241Z,0
2017-05-02T03:12:39.238Z,0
2017-05-02T03:13:49.135Z,0
2017-05-02T03:14:59.041Z,0
2017-05-02T03:16:08.954Z,0
2017-05-02T03:17:18.549Z,0
2017-05-02T03:18:28.747Z,0
2017-05-02T03:19:38.961Z,0
2017-05-02T03:20:49.165Z,0
2017-05-02T03:21:59.069Z,0
2017-05-02T03:23:09.277Z,0
2017-05-02T03:24:19.539Z,0
2017-05-02T03:25:29.443Z,0
2017-05-02T03:26:39.664Z,0
2017-05-02T03:27:49.871Z,0
2017-05-02T03:28:59.801Z,0
2017-05-02T03:30:09.235Z,0
2017-05-02T03:31:19.145Z,0
2017-05-02T03:32:29.056Z,0
2017-05-02T03:33:38.986Z,0
2017-05-02T03:34:48.889Z,0
2017-05-02T03:35:59.054Z,0
2017-05-02T03:37:08.956Z,0
2017-05-02T03:38:18.861Z,0
2017-05-02T03:39:29.071Z,0
2017-05-02T03:40:39.283Z,0
2017-05-02T03:41:48.674Z,0
2017-05-02T03:42:58.880Z,0
2017-05-02T03:44:08.786Z,0
2017-05-02T03:45:18.686Z,0
2017-05-02T03:46:28.283Z,0
2017-05-02T03:47:38.035Z,0
2017-05-02T03:48:48.254Z,0
2017-05-02T03:49:58.480Z,0
2017-05-02T03:51:08.697Z,4
2017-05-02T03:52:18.597Z,4
2017-05-02T03:53:28.756Z,4
2017-05-02T03:54:38.667Z,4
2017-05-02T03:55:48.562Z,0
2017-05-02T03:56:58.465Z,4
2017-05-02T03:58:08.377Z,4
2017-05-02T03:59:18.431Z,4
2017-05-02T04:00:28.636Z,8
2017-05-02T04:01:38.845Z,8
2017-05-02T04:02:48.748Z,4
2017-05-02T04:03:58.679Z,8
2017-05-02T04:05:09.076Z,8
2017-05-02T04:06:18.989Z,12
2017-05-02T04:07:28.890Z,8
2017-05-02T04:08:38.801Z,12
2017-05-02T04:09:48.707Z,16
2017-05-02T04:10:59.062Z,12
2017-05-02T04:12:08.693Z,16
2017-05-02T04:13:18.308Z,20
2017-05-02T04:14:28.211Z,16
2017-05-02T04:15:38.457Z,20
2017-05-02T04:16:48.519Z,20
2017-05-02T04:17:58.726Z,24
2017-05-02T04:19:08.940Z,24
2017-05-02T04:20:19.173Z,24
2017-05-02T04:21:29.384Z,28
2017-05-02T04:22:39.602Z,28
2017-05-02T04:23:49.503Z,32
2017-05-02T04:24:59.711Z,36
2017-05-02T04:26:09.302Z,36
2017-05-02T04:27:19.205Z,44
2017-05-02T04:28:28.345Z,48
2017-05-02T04:29:38.292Z,52
2017-05-02T04:30:47.593Z,56
2017-05-02T04:31:57.484Z,68
2017-05-02T04:33:07.689Z,68
2017-05-02T04:34:17.714Z,76
2017-05-02T04:35:27.635Z,84
2017-05-02T04:36:37.574Z,92
2017-05-02T04:37:47.800Z,96
2017-05-02T04:38:57.698Z,104
2017-05-02T04:40:07.781Z,112
2017-05-02T04:41:17.679Z,116
2017-05-02T04:42:27.628Z,116
2017-05-02T04:43:37.872Z,116
2017-05-02T04:44:47.788Z,116
2017-05-02T04:45:57.743Z,120
2017-05-02T04:47:07.641Z,124
2017-05-02T04:48:17.555Z,124
2017-05-02T04:49:27.462Z,124
2017-05-02T04:50:37.687Z,128
2017-05-02T04:51:48.152Z,128
2017-05-02T04:52:58.389Z,128
2017-05-02T04:54:08.617Z,120
2017-05-02T04:55:18.214Z,108
2017-05-02T04:56:28.151Z,100
2017-05-02T04:57:38.762Z,92
2017-05-02T04:58:48.966Z,92
2017-05-02T04:59:58.905Z,88
2017-05-02T05:01:08.814Z,84
2017-05-02T05:02:19.029Z,84
2017-05-02T05:03:29.942Z,80
2017-05-02T05:04:39.850Z,88
2017-05-02T05:05:49.761Z,84
2017-05-02T05:06:59.362Z,84
2017-05-02T05:08:09.603Z,80
2017-05-02T05:09:20.125Z,84
2017-05-02T05:10:29.721Z,80
2017-05-02T05:11:39.942Z,80
2017-05-02T05:12:50.153Z,80
2017-05-02T05:14:00.370Z,80
2017-05-02T05:15:10.417Z,88
2017-05-02T05:16:20.317Z,92
2017-05-02T05:17:29.918Z,92
2017-05-02T05:18:40.124Z,100
2017-05-02T05:19:50.027Z,104
2017-05-02T05:21:00.113Z,108
2017-05-02T05:22:10.324Z,108
2017-05-02T05:23:20.222Z,112
2017-05-02T05:24:30.442Z,112
2017-05-02T05:25:40.666Z,120
2017-05-02T05:26:50.549Z,124
2017-05-02T05:28:00.455Z,136
2017-05-02T05:29:10.675Z,144
2017-05-02T05:30:20.589Z,152
2017-05-02T05:31:30.488Z,148
2017-05-02T05:32:41.767Z,140
2017-05-02T05:33:51.978Z,140
2017-05-02T05:35:01.876Z,140
2017-05-02T05:36:11.776Z,144
2017-05-02T05:37:21.376Z,152
2017-05-02T05:38:31.921Z,156
2017-05-02T05:39:41.833Z,164
2017-05-02T05:40:51.746Z,164
2017-05-02T05:42:01.373Z,164
2017-05-02T05:43:11.286Z,160
2017-05-02T05:44:21.190Z,156
2017-05-02T05:45:31.411Z,156
2017-05-02T05:46:41.628Z,152
2017-05-02T05:47:51.828Z,160
2017-05-02T05:49:01.722Z,168
2017-05-02T05:50:11.508Z,176
2017-05-02T05:51:21.402Z,180
2017-05-02T05:52:31.313Z,188
2017-05-02T05:53:41.531Z,196
2017-05-02T05:54:51.131Z,204
2017-05-02T05:56:01.340Z,208
2017-05-02T05:57:10.943Z,216
2017-05-02T05:58:19.937Z,224
2017-05-02T05:59:29.848Z,228
2017-05-02T06:00:39.751Z,216
2017-05-02T06:01:49.637Z,212
2017-05-02T06:02:59.557Z,208
2017-05-02T06:04:09.472Z,196
2017-05-02T06:05:19.378Z,196
2017-05-02T06:06:29.596Z,200
2017-05-02T06:07:39.976Z,200
2017-05-02T06:08:49.886Z,212
2017-05-02T06:09:59.799Z,212
2017-05-02T06:11:09.698Z,220
2017-05-02T06:12:19.295Z,220
2017-05-02T06:13:29.354Z,228
2017-05-02T06:14:39.591Z,232
2017-05-02T06:15:49.494Z,236
2017-05-02T06:16:59.088Z,236
2017-05-02T06:18:09.300Z,236
2017-05-02T06:19:19.465Z,232
2017-05-02T06:20:29.385Z,228
2017-05-02T06:21:39.602Z,228
2017-05-02T06:22:49.505Z,232
2017-05-02T06:23:59.408Z,224
2017-05-02T06:25:09.570Z,220
2017-05-02T06:26:19.481Z,220
2017-05-02T06:27:29.089Z,220
2017-05-02T06:28:38.999Z,228
2017-05-02T06:29:49.214Z,236
2017-05-02T06:30:58.962Z,244
2017-05-02T06:32:08.254Z,236
2017-05-02T06:33:17.260Z,236
2017-05-02T06:34:27.182Z,220
2017-05-02T06:35:37.395Z,184
2017-05-02T06:36:47.452Z,152
2017-05-02T06:37:57.370Z,136
2017-05-02T06:39:07.943Z,128
2017-05-02T06:40:17.845Z,124
2017-05-02T06:41:27.448Z,132
2017-05-02T06:42:37.316Z,140
2017-05-02T06:43:47.545Z,144
2017-05-02T06:44:57.152Z,152
2017-05-02T06:46:06.751Z,156
2017-05-02T06:47:16.662Z,156
2017-05-02T06:48:26.873Z,160
2017-05-02T06:49:36.785Z,152
2017-05-02T06:50:46.995Z,144
2017-05-02T06:51:56.900Z,152
2017-05-02T06:53:07.119Z,160
2017-05-02T06:54:16.669Z,172
2017-05-02T06:55:26.589Z,176
2017-05-02T06:56:36.816Z,176
2017-05-02T06:57:46.457Z,180
2017-05-02T06:58:56.059Z,180
2017-05-02T07:00:06.079Z,180
2017-05-02T07:01:16.306Z,196
2017-05-02T07:02:25.907Z,208
2017-05-02T07:03:35.513Z,216
2017-05-02T07:04:45.114Z,244
2017-05-02T07:05:54.965Z,248
2017-05-02T07:07:04.876Z,232
2017-05-02T07:08:15.083Z,208
2017-05-02T07:09:24.993Z,208
2017-05-02T07:10:34.902Z,204
2017-05-02T07:11:44.766Z,212
2017-05-02T07:12:54.984Z,216
2017-05-02T07:14:04.882Z,220
2017-05-02T07:15:13.569Z,232
2017-05-02T07:16:23.156Z,216
2017-05-02T07:17:32.490Z,204
2017-05-02T07:18:42.392Z,192
2017-05-02T07:19:51.704Z,184
2017-05-02T07:21:01.319Z,184
2017-05-02T07:22:11.539Z,176
2017-05-02T07:23:21.607Z,168
2017-05-02T07:24:31.523Z,168
2017-05-02T07:25:41.740Z,160
2017-05-02T07:26:51.334Z,176
2017-05-02T07:28:01.250Z,212
2017-05-02T07:29:11.118Z,236
2017-05-02T07:30:21.335Z,264
2017-05-02T07:31:30.941Z,284
2017-05-02T07:32:40.551Z,296
2017-05-02T07:33:50.766Z,296
2017-05-02T07:35:01.061Z,292
2017-05-02T07:36:10.684Z,316
2017-05-02T07:37:20.588Z,308
2017-05-02T07:38:30.207Z,324
2017-05-02T07:39:40.437Z,376
2017-05-02T07:40:50.954Z,380
2017-05-02T07:42:00.257Z,384
2017-05-02T07:43:09.857Z,388
2017-05-02T07:44:19.170Z,448
2017-05-02T07:45:29.104Z,464
2017-05-02T07:46:38.862Z,436
2017-05-02T07:47:49.079Z,420
2017-05-02T07:48:59.332Z,412
2017-05-02T07:50:08.941Z,408
2017-05-02T07:51:19.171Z,388
2017-05-02T07:52:29.502Z,416
2017-05-02T07:53:38.489Z,488
2017-05-02T07:54:48.713Z,508
2017-05-02T07:55:58.935Z,508
2017-05-02T07:57:08.227Z,516
2017-05-02T07:58:18.068Z,496
2017-05-02T07:59:27.697Z,488
2017-05-02T08:00:36.718Z,500
2017-05-02T08:01:46.361Z,516
2017-05-02T08:02:56.278Z,520
2017-05-02T08:04:06.486Z,536
2017-05-02T08:05:16.091Z,548
2017-05-02T08:06:25.396Z,596
2017-05-02T08:07:35.309Z,628
2017-05-02T08:08:45.238Z,596
2017-05-02T08:09:55.603Z,632
2017-05-02T08:11:05.204Z,640
2017-05-02T08:12:14.490Z,636
2017-05-02T08:13:24.082Z,616
2017-05-02T08:14:34.283Z,604
2017-05-02T08:15:44.493Z,664
2017-05-02T08:16:54.752Z,644
2017-05-02T08:18:04.698Z,656
2017-05-02T08:19:14.602Z,676
2017-05-02T08:20:24.518Z,652
2017-05-02T08:21:34.818Z,672
2017-05-02T08:22:45.028Z,652
2017-05-02T08:23:55.235Z,660
2017-05-02T08:25:05.151Z,688
2017-05-02T08:26:14.777Z,656
2017-05-02T08:27:25.100Z,672
2017-05-02T08:28:34.392Z,688
2017-05-02T08:29:44.306Z,744
2017-05-02T08:30:54.221Z,748
2017-05-02T08:32:04.125Z,788
2017-05-02T08:33:14.294Z,752
2017-05-02T08:34:23.592Z,696
2017-05-02T08:35:33.501Z,720
2017-05-02T08:36:43.420Z,816
2017-05-02T08:37:53.337Z,832
2017-05-02T08:39:03.797Z,744
2017-05-02T08:40:13.727Z,728
2017-05-02T08:41:23.330Z,740
2017-05-02T08:42:32.641Z,768
2017-05-02T08:43:42.245Z,720
2017-05-02T08:44:52.564Z,708
2017-05-02T08:46:02.176Z,844
2017-05-02T08:47:11.783Z,1024
2017-05-02T08:48:21.688Z,1028
2017-05-02T08:49:31.613Z,976
2017-05-02T08:50:41.822Z,940
2017-05-02T08:51:51.724Z,1028
2017-05-02T08:53:01.335Z,1028
2017-05-02T08:54:11.255Z,976
2017-05-02T08:55:21.479Z,856
2017-05-02T08:56:31.677Z,820
2017-05-02T08:57:41.878Z,860
2017-05-02T08:58:52.100Z,768
2017-05-02T09:00:01.707Z,684
2017-05-02T09:01:11.642Z,664
2017-05-02T09:02:21.945Z,604
2017-05-02T09:03:31.259Z,664
2017-05-02T09:04:41.484Z,692
2017-05-02T09:05:51.101Z,612
2017-05-02T09:07:00.401Z,612
2017-05-02T09:08:10.154Z,676
2017-05-02T09:09:20.362Z,708
2017-05-02T09:10:29.659Z,792
2017-05-02T09:11:39.870Z,968
2017-05-02T09:12:50.080Z,996
2017-05-02T09:14:01.011Z,980
2017-05-02T09:15:11.216Z,1048
2017-05-02T09:16:21.165Z,940
2017-05-02T09:17:31.097Z,808
2017-05-02T09:18:41.320Z,928
2017-05-02T09:19:51.482Z,1116
2017-05-02T09:21:01.697Z,896
2017-05-02T09:22:11.014Z,1024
2017-05-02T09:23:20.627Z,1092
2017-05-02T09:24:30.846Z,892
2017-05-02T09:25:41.000Z,1008
2017-05-02T09:26:51.241Z,1028
2017-05-02T09:28:01.478Z,900
2017-05-02T09:29:11.692Z,980
2017-05-02T09:30:21.915Z,1072
2017-05-02T09:31:31.506Z,1256
2017-05-02T09:32:41.427Z,1180
2017-05-02T09:33:51.677Z,884
2017-05-02T09:35:01.299Z,1016
2017-05-02T09:36:11.517Z,1072
2017-05-02T09:37:21.434Z,1152
2017-05-02T09:38:31.380Z,1272
2017-05-02T09:39:41.303Z,1720
2017-05-02T09:40:51.216Z,1452
2017-05-02T09:42:01.436Z,1256
2017-05-02T09:43:10.823Z,1268
2017-05-02T09:44:20.742Z,1496
2017-05-02T09:45:30.972Z,1880
2017-05-02T09:46:40.891Z,1868
2017-05-02T09:47:51.119Z,1816
2017-05-02T09:49:00.829Z,1696
2017-05-02T09:50:10.438Z,1572
2017-05-02T09:51:20.372Z,1756
2017-05-02T09:52:30.289Z,1952
2017-05-02T09:53:40.515Z,2164
2017-05-02T09:54:51.057Z,2336
2017-05-02T09:56:00.988Z,2256
2017-05-02T09:57:10.906Z,1864
2017-05-02T09:58:20.205Z,1944
2017-05-02T09:59:30.116Z,1980
2017-05-02T10:00:40.121Z,1736
2017-05-02T10:01:50.032Z,1972
2017-05-02T10:02:59.333Z,2012
2017-05-02T10:04:09.549Z,1728
2017-05-02T10:05:19.462Z,1720
2017-05-02T10:06:29.674Z,1852
2017-05-02T10:07:39.594Z,1804
2017-05-02T10:08:49.820Z,1692
2017-05-02T10:10:00.036Z,1632
2017-05-02T10:11:09.348Z,1436
2017-05-02T10:12:19.399Z,1400
2017-05-02T10:13:29.624Z,1540
2017-05-02T10:14:39.840Z,1736
2017-05-02T10:15:50.051Z,1712
2017-05-02T10:16:59.955Z,1532
2017-05-02T10:18:09.870Z,1556
2017-05-02T10:19:19.523Z,1520
2017-05-02T10:20:29.483Z,1676
2017-05-02T10:21:38.789Z,1556
2017-05-02T10:22:48.402Z,1476
2017-05-02T10:23:58.964Z,1516
2017-05-02T10:25:08.556Z,1416
2017-05-02T10:26:18.493Z,1428
2017-05-02T10:27:28.416Z,1484
2017-05-02T10:28:38.398Z,1648
2017-05-02T10:29:47.808Z,1956
2017-05-02T10:30:57.723Z,2448
2017-05-02T10:32:07.639Z,2456
2017-05-02T10:33:17.541Z,2576
2017-05-02T10:34:27.453Z,3016
2017-05-02T10:35:37.615Z,3112
2017-05-02T10:36:47.828Z,3200
2017-05-02T10:37:57.747Z,2944
2017-05-02T10:39:07.994Z,2656
2017-05-02T10:40:18.210Z,2556
2017-05-02T10:41:27.600Z,2268
2017-05-02T10:42:37.515Z,1808
2017-05-02T10:43:47.742Z,1864
2017-05-02T10:44:57.961Z,3228
2017-05-02T10:46:07.884Z,3604
2017-05-02T10:47:17.039Z,3680
2017-05-02T10:48:27.253Z,3440
2017-05-02T10:49:37.448Z,4256
2017-05-02T10:50:46.446Z,4540
2017-05-02T10:51:56.661Z,3984
2017-05-02T10:53:07.179Z,3256
2017-05-02T10:54:17.411Z,3476
2017-05-02T10:55:27.629Z,3904
2017-05-02T10:56:37.531Z,4052
2017-05-02T10:57:47.136Z,4056
2017-05-02T10:58:56.898Z,3588
2017-05-02T11:00:06.524Z,3704
2017-05-02T11:01:16.431Z,4136
2017-05-02T11:02:26.661Z,4220
2017-05-02T11:03:36.575Z,3964
2017-05-02T11:04:46.737Z,3760
2017-05-02T11:05:56.665Z,3492
2017-05-02T11:07:06.583Z,3084
2017-05-02T11:08:16.492Z,2876
2017-05-02T11:09:26.707Z,3104
2017-05-02T11:10:37.200Z,3176
2017-05-02T11:11:47.102Z,2612
2017-05-02T11:12:56.996Z,2732
2017-05-02T11:14:06.911Z,2624
2017-05-02T11:15:17.135Z,1604
2017-05-02T11:16:27.363Z,1296
2017-05-02T11:17:37.586Z,1248
2017-05-02T11:18:47.184Z,1264
2017-05-02T11:19:57.100Z,1252
2017-05-02T11:21:07.313Z,1280
2017-05-02T11:22:17.022Z,1072
2017-05-02T11:23:26.956Z,792
2017-05-02T11:24:36.875Z,784
2017-05-02T11:25:46.182Z,772
2017-05-02T11:26:56.694Z,804
2017-05-02T11:28:06.925Z,948
2017-05-02T11:29:16.851Z,740
2017-05-02T11:30:27.066Z,768
2017-05-02T11:31:36.665Z,820
2017-05-02T11:32:46.887Z,800
2017-05-02T11:33:56.596Z,712
2017-05-02T11:35:06.806Z,728
2017-05-02T11:36:16.398Z,760
2017-05-02T11:37:26.320Z,852
2017-05-02T11:38:35.945Z,872
2017-05-02T11:39:46.156Z,760
2017-05-02T11:40:55.778Z,936
2017-05-02T11:42:06.013Z,1352
2017-05-02T11:43:15.924Z,1412
2017-05-02T11:44:26.157Z,1184
2017-05-02T11:45:36.466Z,1336
2017-05-02T11:46:46.410Z,1632
2017-05-02T11:47:56.329Z,2040
2017-05-02T11:49:06.247Z,1916
2017-05-02T11:50:16.157Z,2508
2017-05-02T11:51:26.056Z,2888
2017-05-02T11:52:36.272Z,2792
2017-05-02T11:53:46.487Z,2960
2017-05-02T11:54:55.777Z,3176
2017-05-02T11:56:05.695Z,3264
2017-05-02T11:57:15.706Z,3340
2017-05-02T11:58:25.316Z,3392
2017-05-02T11:59:34.620Z,3400
2017-05-02T12:00:44.241Z,3392
2017-05-02T12:01:54.460Z,3448
2017-05-02T12:03:04.989Z,3524
2017-05-02T12:04:14.903Z,3464
2017-05-02T12:05:24.513Z,3328
2017-05-02T12:06:34.130Z,3320
2017-05-02T12:07:44.039Z,3296
2017-05-02T12:08:53.741Z,3360
2017-05-02T12:10:03.337Z,3236
2017-05-02T12:11:12.713Z,3376
2017-05-02T12:12:22.007Z,3448
2017-05-02T12:13:32.233Z,3528
2017-05-02T12:14:42.621Z,3224
2017-05-02T12:15:52.225Z,3100
2017-05-02T12:17:02.456Z,2544
2017-05-02T12:18:11.757Z,1888
2017-05-02T12:19:21.050Z,1464
2017-05-02T12:20:30.781Z,1252
2017-05-02T12:21:40.379Z,1120
2017-05-02T12:22:49.973Z,1080
2017-05-02T12:24:00.191Z,1076
2017-05-02T12:25:10.101Z,1084
2017-05-02T12:26:19.952Z,1124
2017-05-02T12:27:29.868Z,1156
2017-05-02T12:28:39.484Z,1268
2017-05-02T12:29:49.088Z,1420
2017-05-02T12:30:59.297Z,1612
2017-05-02T12:32:09.760Z,1712
2017-05-02T12:33:19.982Z,1796
2017-05-02T12:34:29.915Z,1824
2017-05-02T12:35:39.809Z,1680
2017-05-02T12:36:49.723Z,1248
2017-05-02T12:37:59.785Z,836
2017-05-02T12:39:09.400Z,752
2017-05-02T12:40:19.304Z,852
2017-05-02T12:41:29.519Z,912
2017-05-02T12:42:39.431Z,780
2017-05-02T12:43:49.593Z,860
2017-05-02T12:44:59.800Z,872
2017-05-02T12:46:09.095Z,756
2017-05-02T12:47:19.005Z,696
2017-05-02T12:48:29.229Z,664
2017-05-02T12:49:39.291Z,692
2017-05-02T12:50:49.201Z,704
2017-05-02T12:51:59.140Z,688
2017-05-02T12:53:09.361Z,700
2017-05-02T12:54:19.279Z,720
